Humidity-temperature Sensor

Selected Measurement Type: Relative Humidity

 
Relative Humidity [%]     6 entries per hour
Showing data from 12/24/2022 (00:00:00 Z) to 12/23/2022 (00:01:00 Z)
Previous Next [ Day | 3-Days | 7-Days ]
First Last
Prev [ Day | 3-Days | 7-Days ] Next
First Last

Start Time:     :
End Time:     :     
Time (in GMT) :00 :50 :40 :30 :20 :10
Previous Next [ Day | 3-Days | 7-Days ]
First Last
Prev [ Day | 3-Days | 7-Days ] Next
First Last


123 => good data
MM => data is determined as missing
-- => data not received/configured
Back to Top Back to Top
12/24/2022 00:00 to 23:10 100.60 100.72 100.56 100.81 100.56 100.48
12/23/2022 23:00 to 22:10 100.42 100.21 100.19 99.94 100.01 100.15
12/23/2022 22:00 to 21:10 100.25 100.27 100.23 100.54 100.56 100.56
12/23/2022 21:00 to 20:10 100.72 100.68 100.72 100.54 100.56 100.50
12/23/2022 20:00 to 19:10 100.66 100.58 100.58 100.68 100.64 100.64
12/23/2022 19:00 to 18:10 100.68 100.85 100.70 100.66 100.70 100.72
12/23/2022 18:00 to 17:10 100.66 100.62 100.44 100.25 99.64 99.41
12/23/2022 17:00 to 16:10 99.51 99.51 99.61 99.70 99.64 99.20
12/23/2022 16:00 to 15:10 99.10 99.00 98.71 98.59 98.32 98.14
12/23/2022 15:00 to 14:10 98.14 97.91 97.62 97.42 96.76 96.45
12/23/2022 14:00 to 13:10 96.04 95.71 95.28 94.83 94.79 94.56
12/23/2022 13:00 to 12:10 94.13 93.55 93.45 93.24 93.08 92.69
12/23/2022 12:00 to 11:10 92.87 93.06 92.79 92.75 92.85 92.96
12/23/2022 11:00 to 10:10 92.87 93.00 93.04 93.20 93.41 93.43
12/23/2022 10:00 to 9:10 93.94 94.15 94.52 94.52 94.40 94.87
12/23/2022 09:00 to 8:10 95.01 95.63 96.08 96.49 97.01 97.29
12/23/2022 08:00 to 7:10 97.62 98.01 98.09 98.28 98.57 98.71
12/23/2022 07:00 to 6:10 99.00 99.06 99.24 99.27 99.68 99.90
12/23/2022 06:00 to 5:10 100.21 100.42 100.48 100.25 100.40 100.25
12/23/2022 05:00 to 4:10 100.21 100.70 100.87 100.89 100.91 100.91
12/23/2022 04:00 to 3:10 100.91 100.91 100.91 100.91 100.91 100.91
12/23/2022 03:00 to 2:10 100.91 100.91 100.91 100.91 100.91 100.91
12/23/2022 02:00 to 1:10 100.91 100.91 100.91 100.91 100.91 100.91
12/23/2022 01:00 to 0:10 100.91 100.91 100.91 100.91 100.91 100.91